createdAt,value
2022-09-01T00:00:18.559Z,54.95
2022-09-01T00:02:47.034Z,54.97
2022-09-01T00:05:15.214Z,55.11
2022-09-01T00:07:43.032Z,55.01
2022-09-01T00:10:11.295Z,55.00
2022-09-01T00:12:39.840Z,55.18
2022-09-01T00:15:11.106Z,55.18
2022-09-01T00:17:39.218Z,55.26
2022-09-01T00:20:08.331Z,55.35
2022-09-01T00:22:36.323Z,55.37
2022-09-01T00:25:06.009Z,55.38
2022-09-01T00:27:33.888Z,55.64
2022-09-01T00:30:01.848Z,55.67
2022-09-01T00:32:30.716Z,55.77
2022-09-01T00:34:58.537Z,55.91
2022-09-01T00:37:26.386Z,55.97
2022-09-01T00:39:54.236Z,56.17
2022-09-01T00:42:22.130Z,56.34
2022-09-01T00:44:49.935Z,56.39
2022-09-01T00:47:19.226Z,56.45
2022-09-01T00:49:51.217Z,56.42
2022-09-01T00:52:32.424Z,56.44
2022-09-01T00:55:29.952Z,56.38
2022-09-01T00:58:03.448Z,56.49
2022-09-01T01:00:34.322Z,56.51
2022-09-01T01:03:02.266Z,56.66
2022-09-01T01:05:36.607Z,56.76
2022-09-01T01:08:06.582Z,56.72
2022-09-01T01:10:42.024Z,56.62
2022-09-01T01:13:17.174Z,56.61
2022-09-01T01:15:45.432Z,56.65
2022-09-01T01:18:16.946Z,56.53
2022-09-01T01:21:28.892Z,56.47
2022-09-01T01:24:23.166Z,56.60
2022-09-01T01:26:53.226Z,56.64
2022-09-01T01:29:21.974Z,56.72
2022-09-01T01:31:53.967Z,56.72
2022-09-01T01:34:23.456Z,56.62
2022-09-01T01:36:51.975Z,56.69
2022-09-01T01:39:27.678Z,56.79
2022-09-01T01:41:57.927Z,56.65
2022-09-01T01:44:31.099Z,56.76
2022-09-01T01:47:04.477Z,56.83
2022-09-01T01:49:34.748Z,56.89
2022-09-01T01:52:04.719Z,57.24
2022-09-01T01:54:37.518Z,57.02
2022-09-01T01:57:05.593Z,57.24
2022-09-01T01:59:33.868Z,57.36
2022-09-01T02:02:08.705Z,57.19
2022-09-01T02:04:37.050Z,57.06
2022-09-01T02:07:13.100Z,57.17
2022-09-01T02:09:46.047Z,56.81
2022-09-01T02:12:19.669Z,57.17
2022-09-01T02:14:48.592Z,56.98
2022-09-01T02:17:17.327Z,56.95
2022-09-01T02:19:47.394Z,57.06
2022-09-01T02:22:15.368Z,57.00
2022-09-01T02:24:49.225Z,56.97
2022-09-01T02:27:21.982Z,56.80
2022-09-01T02:29:55.491Z,56.71
2022-09-01T02:32:24.112Z,56.72
2022-09-01T02:34:53.939Z,56.82
2022-09-01T02:37:25.314Z,56.76
2022-09-01T02:39:53.948Z,56.79
2022-09-01T02:42:27.581Z,56.75
2022-09-01T02:44:57.446Z,56.81
2022-09-01T02:47:29.760Z,56.92
2022-09-01T02:50:01.093Z,56.69
2022-09-01T02:52:37.611Z,56.62
2022-09-01T02:55:06.870Z,56.72
2022-09-01T02:57:35.236Z,56.57
2022-09-01T03:00:20.787Z,56.64
2022-09-01T03:02:53.014Z,56.67
2022-09-01T03:05:27.079Z,56.73
2022-09-01T03:08:01.689Z,56.63
2022-09-01T03:10:35.531Z,56.60
2022-09-01T03:13:08.901Z,56.82
2022-09-01T03:15:38.209Z,56.76
2022-09-01T03:18:08.149Z,56.76
2022-09-01T03:20:39.537Z,56.85
2022-09-01T03:23:08.640Z,57.05
2022-09-01T03:25:37.582Z,57.05
2022-09-01T03:28:06.702Z,57.19
2022-09-01T03:30:40.154Z,57.13
2022-09-01T03:33:08.417Z,57.13
2022-09-01T03:35:37.184Z,57.11
2022-09-01T03:38:05.709Z,56.96
2022-09-01T03:40:37.035Z,57.28
2022-09-01T03:43:12.946Z,57.03
2022-09-01T03:45:44.844Z,57.12
2022-09-01T03:48:16.865Z,57.01
2022-09-01T03:50:46.380Z,57.27
2022-09-01T03:53:22.812Z,57.04
2022-09-01T03:55:50.763Z,57.09
2022-09-01T03:58:20.187Z,57.03
2022-09-01T04:00:55.461Z,57.16
2022-09-01T04:03:29.081Z,57.20
2022-09-01T04:06:02.508Z,57.30
2022-09-01T04:08:32.578Z,57.40
2022-09-01T04:11:11.373Z,57.57
2022-09-01T04:13:41.969Z,57.48
2022-09-01T04:16:43.511Z,57.65
2022-09-01T04:19:25.188Z,57.57
2022-09-01T04:22:05.434Z,57.68
2022-09-01T04:24:45.519Z,57.54
2022-09-01T04:27:15.212Z,57.67
2022-09-01T04:29:46.538Z,57.78
2022-09-01T04:32:15.934Z,57.95
2022-09-01T04:34:49.848Z,57.72
2022-09-01T04:37:22.094Z,57.91
2022-09-01T04:40:03.721Z,57.05
2022-09-01T04:42:33.135Z,57.36
2022-09-01T04:45:09.935Z,57.67
2022-09-01T04:47:42.169Z,57.78
2022-09-01T04:50:17.600Z,58.15
2022-09-01T04:53:07.322Z,57.84
2022-09-01T04:55:49.768Z,58.15
2022-09-01T04:58:20.580Z,58.27
2022-09-01T05:00:52.248Z,58.28
2022-09-01T05:03:22.377Z,58.26
2022-09-01T05:06:03.940Z,58.10
2022-09-01T05:08:35.210Z,58.05
2022-09-01T05:11:08.055Z,58.11
2022-09-01T05:13:43.534Z,58.10
2022-09-01T05:16:15.947Z,58.16
2022-09-01T05:18:49.071Z,58.27
2022-09-01T05:21:24.824Z,58.18
2022-09-01T05:23:54.401Z,58.22
2022-09-01T05:26:34.682Z,58.36
2022-09-01T05:29:10.802Z,58.22
2022-09-01T05:31:42.457Z,58.41
2022-09-01T05:34:11.041Z,58.24
2022-09-01T05:36:46.351Z,58.33
2022-09-01T05:39:14.852Z,58.51
2022-09-01T05:41:43.249Z,58.46
2022-09-01T05:44:14.169Z,58.37
2022-09-01T05:46:44.590Z,58.28
2022-09-01T05:49:18.573Z,58.31
2022-09-01T05:51:51.887Z,58.36
2022-09-01T05:54:27.479Z,58.20
2022-09-01T05:57:12.634Z,58.12
2022-09-01T05:59:53.687Z,58.21
2022-09-01T06:02:27.313Z,58.21
2022-09-01T06:04:57.489Z,57.54
2022-09-01T06:07:30.931Z,57.65
2022-09-01T06:10:01.132Z,57.94
2022-09-01T06:12:29.068Z,58.00
2022-09-01T06:14:57.999Z,58.20
2022-09-01T06:17:29.010Z,58.26
2022-09-01T06:20:02.031Z,58.09
2022-09-01T06:22:34.652Z,57.66
2022-09-01T06:25:06.702Z,57.68
2022-09-01T06:27:44.470Z,57.93
2022-09-01T06:30:23.189Z,58.06
2022-09-01T06:32:57.330Z,57.77
2022-09-01T06:35:29.580Z,58.02
2022-09-01T06:37:58.720Z,58.11
2022-09-01T06:40:42.785Z,58.17
2022-09-01T06:43:16.219Z,58.17
2022-09-01T06:45:49.781Z,58.07
2022-09-01T06:48:18.624Z,58.14
2022-09-01T06:53:35.738Z,58.16
2022-09-01T06:56:10.162Z,58.27
2022-09-01T06:58:48.296Z,58.37
2022-09-01T07:01:21.286Z,58.27
2022-09-01T07:03:53.426Z,58.26
2022-09-01T07:09:38.833Z,57.85
2022-09-01T07:12:25.943Z,57.58
2022-09-01T07:17:55.583Z,57.73
2022-09-01T07:20:29.385Z,57.82
2022-09-01T07:23:07.073Z,58.27
2022-09-01T07:26:00.979Z,57.73
2022-09-01T07:28:37.926Z,57.49
2022-09-01T07:39:50.617Z,57.51
2022-09-01T07:49:28.706Z,57.02
2022-09-01T07:51:50.214Z,56.76
2022-09-01T07:54:23.815Z,56.50
2022-09-01T07:56:54.431Z,56.27
2022-09-01T07:59:23.431Z,56.55
2022-09-01T08:01:58.035Z,56.19
2022-09-01T08:04:26.732Z,55.93
2022-09-01T08:06:57.590Z,55.74
2022-09-01T08:09:32.786Z,55.74
2022-09-01T08:12:08.337Z,55.51
2022-09-01T08:14:44.191Z,55.14
2022-09-01T08:20:08.429Z,54.95
2022-09-01T08:23:18.376Z,54.51
2022-09-01T08:25:48.595Z,54.50
2022-09-01T08:28:26.287Z,53.92
2022-09-01T08:30:56.341Z,53.55
2022-09-01T08:33:26.447Z,53.47
2022-09-01T08:35:55.439Z,53.65
2022-09-01T08:38:24.012Z,53.44
2022-09-01T08:40:57.836Z,53.17
2022-09-01T08:44:01.829Z,53.15
2022-09-01T08:46:39.950Z,52.42
2022-09-01T08:49:29.521Z,52.38
2022-09-01T08:52:33.052Z,52.08
2022-09-01T08:55:27.420Z,51.50
2022-09-01T08:57:59.877Z,51.09
2022-09-01T09:00:37.069Z,50.96
2022-09-01T09:03:41.483Z,51.06
2022-09-01T09:06:24.756Z,50.12
2022-09-01T09:08:55.412Z,49.72
2022-09-01T09:11:48.441Z,50.29
2022-09-01T09:14:47.515Z,49.68
2022-09-01T09:17:22.400Z,49.29
2022-09-01T09:19:50.181Z,48.67
2022-09-01T09:22:21.186Z,48.54
2022-09-01T09:25:03.182Z,48.92
2022-09-01T09:27:40.912Z,48.52
2022-09-01T09:30:19.330Z,48.25
2022-09-01T09:33:46.591Z,48.15
2022-09-01T09:35:48.561Z,47.90
2022-09-01T09:38:29.416Z,47.51
2022-09-01T09:41:18.788Z,47.26
2022-09-01T09:44:23.140Z,47.52
2022-09-01T09:46:51.787Z,47.33
2022-09-01T09:49:41.422Z,47.55
2022-09-01T09:52:16.409Z,47.21
2022-09-01T09:55:30.616Z,47.67
2022-09-01T09:58:01.717Z,46.62
2022-09-01T10:00:34.597Z,46.66
2022-09-01T10:03:13.103Z,46.44
2022-09-01T10:05:51.962Z,46.34
2022-09-01T10:08:37.144Z,46.33
2022-09-01T10:11:08.123Z,45.95
2022-09-01T10:13:36.843Z,45.92
2022-09-01T10:16:42.600Z,46.13
2022-09-01T10:19:16.366Z,45.38
2022-09-01T10:21:46.149Z,45.38
2022-09-01T10:24:33.568Z,45.59
2022-09-01T10:27:14.333Z,45.14
2022-09-01T10:30:18.753Z,45.24
2022-09-01T10:32:55.277Z,44.73
2022-09-01T10:35:34.376Z,44.58
2022-09-01T10:38:16.127Z,44.29
2022-09-01T10:41:07.327Z,44.07
2022-09-01T10:43:45.406Z,44.39
2022-09-01T10:46:26.576Z,43.90
2022-09-01T10:49:03.476Z,43.70
2022-09-01T10:51:50.566Z,43.61
2022-09-01T10:54:50.841Z,43.57
2022-09-01T10:57:31.065Z,42.73
2022-09-01T11:00:39.839Z,42.88
2022-09-01T11:06:17.509Z,43.03
2022-09-01T11:08:58.373Z,42.74
2022-09-01T11:11:35.881Z,42.54
2022-09-01T11:14:06.835Z,42.09
2022-09-01T11:16:48.043Z,42.06
2022-09-01T11:19:37.928Z,41.58
2022-09-01T11:22:26.877Z,41.73
2022-09-01T11:25:40.963Z,42.55
2022-09-01T11:28:18.153Z,42.00
2022-09-01T11:31:06.867Z,41.82
2022-09-01T11:34:11.251Z,42.14
2022-09-01T11:36:47.243Z,41.94
2022-09-01T11:39:21.072Z,41.64
2022-09-01T11:42:06.839Z,41.76
2022-09-01T11:45:21.558Z,41.49
2022-09-01T11:47:57.300Z,41.37
2022-09-01T11:50:30.655Z,41.29
2022-09-01T11:53:13.967Z,40.67
2022-09-01T11:55:46.056Z,40.68
2022-09-01T11:58:39.320Z,41.26
2022-09-01T12:01:19.263Z,40.98
2022-09-01T12:03:50.042Z,40.48
2022-09-01T12:06:27.916Z,40.68
2022-09-01T12:09:02.342Z,40.74
2022-09-01T12:11:34.181Z,40.65
2022-09-01T12:14:11.784Z,40.87
2022-09-01T12:16:42.636Z,40.91
2022-09-01T12:19:25.867Z,41.06
2022-09-01T12:22:15.444Z,40.93
2022-09-01T12:24:51.131Z,41.32
2022-09-01T12:27:20.093Z,40.57
2022-09-01T12:29:47.981Z,41.08
2022-09-01T12:32:16.885Z,41.12
2022-09-01T12:35:11.571Z,41.35
2022-09-01T12:37:39.701Z,40.74
2022-09-01T12:40:30.970Z,40.93
2022-09-01T12:42:58.780Z,40.29
2022-09-01T12:45:46.652Z,40.60
2022-09-01T12:48:29.003Z,40.11
2022-09-01T12:51:24.546Z,40.50
2022-09-01T12:53:58.876Z,40.13
2022-09-01T12:56:32.844Z,40.11
2022-09-01T12:59:37.599Z,40.48
2022-09-01T13:02:35.148Z,39.89
2022-09-01T13:05:40.957Z,39.95
2022-09-01T13:08:16.383Z,39.82
2022-09-01T13:10:53.433Z,39.56
2022-09-01T13:13:24.295Z,38.49
2022-09-01T13:15:57.647Z,38.81
2022-09-01T13:18:26.602Z,38.30
2022-09-01T13:20:56.008Z,38.54
2022-09-01T13:23:24.392Z,38.13
2022-09-01T13:25:53.019Z,38.25
2022-09-01T13:36:46.971Z,37.51
2022-09-01T13:39:20.450Z,37.50
2022-09-01T13:41:49.415Z,37.15
2022-09-01T13:44:18.686Z,37.82
2022-09-01T13:50:04.665Z,37.92
2022-09-01T13:52:23.734Z,38.04
2022-09-01T13:54:51.575Z,37.74
2022-09-01T13:57:19.422Z,38.04
2022-09-01T13:59:47.176Z,38.23
2022-09-01T14:02:14.960Z,38.03
2022-09-01T14:04:42.804Z,37.44
2022-09-01T14:07:10.676Z,37.49
2022-09-01T14:09:38.424Z,37.46
2022-09-01T14:12:06.404Z,36.85
2022-09-01T14:17:23.235Z,36.20
2022-09-01T14:19:51.444Z,35.68
2022-09-01T14:22:19.262Z,35.12
2022-09-01T14:24:47.287Z,34.96
2022-09-01T14:27:15.262Z,34.48
2022-09-01T14:32:09.975Z,33.72
2022-09-01T14:34:37.758Z,33.79
2022-09-01T14:37:05.645Z,33.02
2022-09-01T14:39:33.871Z,32.66
2022-09-01T14:42:01.712Z,31.61
2022-09-01T14:44:29.464Z,32.00
2022-09-01T14:46:57.804Z,31.86
2022-09-01T14:49:26.091Z,32.30
2022-09-01T14:52:11.496Z,31.58
2022-09-01T14:54:42.520Z,31.49
2022-09-01T14:59:59.803Z,31.30
2022-09-01T15:02:29.266Z,31.40
2022-09-01T15:04:57.108Z,31.52
2022-09-01T15:07:24.995Z,30.86
2022-09-01T15:09:52.901Z,30.94
2022-09-01T15:12:20.738Z,30.69
2022-09-01T15:14:48.941Z,30.77
2022-09-01T15:17:17.215Z,30.64
2022-09-01T15:19:44.996Z,30.73
2022-09-01T15:22:13.610Z,30.81
2022-09-01T15:24:41.390Z,30.66
2022-09-01T15:27:11.384Z,30.09
2022-09-01T15:29:46.111Z,30.64
2022-09-01T15:32:20.530Z,31.05
2022-09-01T15:34:56.485Z,31.48
2022-09-01T15:37:24.363Z,31.26
2022-09-01T15:39:53.248Z,32.02
2022-09-01T15:42:21.937Z,31.92
2022-09-01T15:44:49.956Z,31.96
2022-09-01T15:47:17.811Z,32.13
2022-09-01T15:49:45.634Z,32.33
2022-09-01T15:52:13.459Z,32.60
2022-09-01T15:54:41.259Z,33.04
2022-09-01T15:57:09.199Z,32.76
2022-09-01T15:59:40.105Z,32.89
2022-09-01T16:02:10.374Z,33.28
2022-09-01T16:04:39.252Z,32.94
2022-09-01T16:07:07.048Z,33.16
2022-09-01T16:09:36.907Z,32.98
2022-09-01T16:12:06.429Z,33.07
2022-09-01T16:14:34.323Z,32.75
2022-09-01T16:17:47.320Z,33.44
2022-09-01T16:20:24.765Z,33.16
2022-09-01T16:23:08.179Z,32.85
2022-09-01T16:25:35.985Z,32.22
2022-09-01T16:28:13.538Z,32.45
2022-09-01T16:30:41.477Z,32.66
2022-09-01T16:33:19.941Z,32.30
2022-09-01T16:35:59.912Z,32.20
2022-09-01T16:38:54.422Z,33.02
2022-09-01T16:41:45.347Z,33.06
2022-09-01T16:45:05.421Z,32.63
2022-09-01T16:47:54.720Z,33.06
2022-09-01T16:50:40.967Z,33.51
2022-09-01T16:53:18.139Z,33.38
2022-09-01T16:56:10.004Z,34.09
2022-09-01T16:58:59.074Z,34.22
2022-09-01T17:01:48.512Z,34.23
2022-09-01T17:04:33.249Z,34.20
2022-09-01T17:07:29.641Z,34.72
2022-09-01T17:10:37.153Z,34.45
2022-09-01T17:13:40.131Z,35.09
2022-09-01T17:16:23.156Z,34.98
2022-09-01T17:19:04.859Z,34.95
2022-09-01T17:21:46.117Z,35.34
2022-09-01T17:24:29.138Z,35.70
2022-09-01T17:27:08.551Z,35.35
2022-09-01T17:29:44.964Z,35.75
2022-09-01T17:33:01.103Z,35.39
2022-09-01T17:36:25.217Z,35.92
2022-09-01T17:39:11.764Z,35.93
2022-09-01T17:42:00.458Z,36.10
2022-09-01T17:44:43.224Z,36.18
2022-09-01T17:47:21.480Z,36.49
2022-09-01T17:50:38.743Z,36.67
2022-09-01T17:53:23.307Z,37.04
2022-09-01T17:56:11.098Z,36.94
2022-09-01T17:58:41.560Z,37.17
2022-09-01T18:01:54.249Z,37.25
2022-09-01T18:04:42.839Z,37.32
2022-09-01T18:08:16.796Z,37.27
2022-09-01T18:10:58.163Z,37.42
2022-09-01T18:14:12.632Z,37.40
2022-09-01T18:17:20.717Z,37.76
2022-09-01T18:20:01.734Z,37.69
2022-09-01T18:22:44.675Z,37.77
2022-09-01T18:25:24.064Z,37.83
2022-09-01T18:27:51.864Z,37.86
2022-09-01T18:30:42.525Z,38.21
2022-09-01T18:33:36.175Z,38.05
2022-09-01T18:36:31.875Z,38.15
2022-09-01T18:39:36.090Z,38.19
2022-09-01T18:42:36.691Z,38.12
2022-09-01T18:45:37.847Z,38.29
2022-09-01T18:48:33.464Z,38.56
2022-09-01T18:51:15.211Z,38.50
2022-09-01T18:53:56.654Z,38.83
2022-09-01T18:56:52.159Z,38.92
2022-09-01T18:59:49.688Z,38.83
2022-09-01T19:02:47.938Z,38.86
2022-09-01T19:06:39.826Z,38.93
2022-09-01T19:09:14.531Z,39.34
2022-09-01T19:12:24.048Z,39.31
2022-09-01T19:14:54.574Z,39.02
2022-09-01T19:17:46.425Z,39.11
2022-09-01T19:20:27.770Z,39.52
2022-09-01T19:23:04.582Z,39.64
2022-09-01T19:25:38.823Z,39.55
2022-09-01T19:28:47.069Z,39.43
2022-09-01T19:31:29.058Z,39.41
2022-09-01T19:34:06.422Z,39.76
2022-09-01T19:36:40.107Z,40.03
2022-09-01T19:39:17.264Z,40.29
2022-09-01T19:42:35.541Z,39.99
2022-09-01T19:45:14.385Z,40.41
2022-09-01T19:48:21.108Z,40.25
2022-09-01T19:51:13.485Z,40.21
2022-09-01T19:54:24.652Z,40.79
2022-09-01T19:57:33.134Z,40.75
2022-09-01T20:00:20.308Z,40.88
2022-09-01T20:03:07.722Z,40.60
2022-09-01T20:09:17.230Z,40.73
2022-09-01T20:12:32.326Z,41.06
2022-09-01T20:15:20.945Z,40.62
2022-09-01T20:18:27.046Z,40.73
2022-09-01T20:20:58.337Z,41.01
2022-09-01T20:24:09.312Z,41.10
2022-09-01T20:26:52.755Z,40.96
2022-09-01T20:30:03.940Z,40.78
2022-09-01T20:32:43.048Z,40.98
2022-09-01T20:35:20.792Z,40.69
2022-09-01T20:37:56.629Z,40.90
2022-09-01T20:40:35.793Z,40.81
2022-09-01T20:43:22.609Z,40.81
2022-09-01T20:45:51.017Z,40.97
2022-09-01T20:48:25.510Z,40.88
2022-09-01T20:51:18.522Z,40.86
2022-09-01T20:54:23.033Z,40.56
2022-09-01T20:57:35.864Z,40.93
2022-09-01T21:00:35.303Z,40.84
2022-09-01T21:03:41.292Z,40.67
2022-09-01T21:06:24.389Z,40.98
2022-09-01T21:09:24.259Z,41.28
2022-09-01T21:12:06.789Z,41.06
2022-09-01T21:14:43.308Z,40.90
2022-09-01T21:17:22.740Z,41.33
2022-09-01T21:20:22.070Z,41.35
2022-09-01T21:22:55.632Z,41.15
2022-09-01T21:25:24.355Z,40.67
2022-09-01T21:27:58.721Z,41.26
2022-09-01T21:30:30.408Z,41.22
2022-09-01T21:32:59.171Z,41.37
2022-09-01T21:35:27.112Z,41.25
2022-09-01T21:37:55.328Z,41.49
2022-09-01T21:40:25.427Z,41.59
2022-09-01T21:43:07.453Z,41.98
2022-09-01T21:45:38.030Z,42.00
2022-09-01T21:48:06.602Z,41.84
2022-09-01T21:50:34.390Z,42.47
2022-09-01T21:53:02.254Z,42.21
2022-09-01T21:55:31.591Z,42.63
2022-09-01T21:57:59.723Z,42.57
2022-09-01T22:00:31.700Z,42.36
2022-09-01T22:03:01.767Z,42.38
2022-09-01T22:05:31.123Z,42.45
2022-09-01T22:07:59.087Z,42.28
2022-09-01T22:10:29.716Z,42.89
2022-09-01T22:13:03.633Z,42.48
2022-09-01T22:15:31.908Z,42.82
2022-09-01T22:17:59.691Z,42.51
2022-09-01T22:20:29.210Z,43.02
2022-09-01T22:23:01.830Z,42.95
2022-09-01T22:25:32.643Z,42.72
2022-09-01T22:28:04.001Z,42.84
2022-09-01T22:30:32.412Z,42.93
2022-09-01T22:33:01.628Z,43.16
2022-09-01T22:35:29.803Z,43.23
2022-09-01T22:37:57.577Z,43.31
2022-09-01T22:40:25.385Z,43.56
2022-09-01T22:42:53.205Z,43.56
2022-09-01T22:45:21.150Z,43.25
2022-09-01T22:47:49.491Z,43.33
2022-09-01T22:50:18.373Z,43.29
2022-09-01T22:52:46.162Z,43.72
2022-09-01T22:55:13.912Z,43.42
2022-09-01T22:57:41.895Z,43.49
2022-09-01T23:00:10.940Z,43.84
2022-09-01T23:02:39.026Z,43.75
2022-09-01T23:05:08.311Z,43.73
2022-09-01T23:07:39.750Z,44.07
2022-09-01T23:10:09.126Z,43.99
2022-09-01T23:12:37.010Z,44.23
2022-09-01T23:15:05.668Z,44.13
2022-09-01T23:17:33.489Z,44.08
2022-09-01T23:20:02.348Z,44.24
2022-09-01T23:22:30.163Z,44.30
2022-09-01T23:24:58.009Z,44.46
2022-09-01T23:27:25.857Z,44.23
2022-09-01T23:29:53.638Z,44.21
2022-09-01T23:32:21.434Z,44.25
2022-09-01T23:34:49.577Z,44.69
2022-09-01T23:37:17.424Z,44.51
2022-09-01T23:39:45.297Z,44.35
2022-09-01T23:42:13.125Z,44.40
2022-09-01T23:44:40.895Z,44.40
2022-09-01T23:47:08.757Z,44.60
2022-09-01T23:49:36.561Z,45.04
2022-09-01T23:52:04.401Z,44.62
2022-09-01T23:54:32.344Z,44.71
2022-09-01T23:57:00.785Z,44.81
2022-09-01T23:59:29.001Z,44.77
